createdAt,value
2019-02-09T00:02:02.077Z,8.30
2019-02-09T00:04:43.833Z,8.40
2019-02-09T00:07:24.743Z,8.40
2019-02-09T00:10:06.029Z,8.40
2019-02-09T00:12:47.164Z,8.50
2019-02-09T00:15:27.869Z,8.50
2019-02-09T00:18:08.325Z,8.50
2019-02-09T00:20:56.479Z,8.50
2019-02-09T00:23:45.797Z,8.50
2019-02-09T00:26:26.428Z,8.40
2019-02-09T00:29:06.938Z,8.30
2019-02-09T00:31:48.212Z,8.20
2019-02-09T00:34:31.593Z,8.10
2019-02-09T00:37:13.941Z,8.20
2019-02-09T00:39:57.026Z,8.20
2019-02-09T00:42:38.364Z,8.10
2019-02-09T00:45:19.290Z,8.10
2019-02-09T00:47:59.998Z,8.00
2019-02-09T00:50:41.242Z,8.00
2019-02-09T00:53:21.856Z,8.00
2019-02-09T00:56:02.455Z,7.90
2019-02-09T00:58:45.786Z,7.90
2019-02-09T01:01:26.498Z,8.00
2019-02-09T01:04:07.112Z,8.00
2019-02-09T01:06:47.673Z,8.00
2019-02-09T01:09:28.516Z,8.00
2019-02-09T01:12:09.010Z,8.00
2019-02-09T01:14:38.179Z,8.00
2019-02-09T01:17:26.440Z,7.90
2019-02-09T01:20:34.529Z,7.70
2019-02-09T01:23:15.715Z,7.60
2019-02-09T01:25:57.618Z,7.50
2019-02-09T01:28:26.774Z,7.50
2019-02-09T01:31:15.007Z,7.50
2019-02-09T01:33:56.973Z,7.50
2019-02-09T01:36:38.234Z,7.40
2019-02-09T01:39:19.233Z,7.40
2019-02-09T01:41:59.826Z,7.30
2019-02-09T01:44:40.628Z,7.30
2019-02-09T01:47:21.433Z,7.30
2019-02-09T01:50:02.440Z,7.10
2019-02-09T01:52:43.594Z,7.00
2019-02-09T01:55:24.918Z,7.00
2019-02-09T01:58:04.278Z,7.00
2019-02-09T02:00:46.924Z,6.90
2019-02-09T02:03:28.334Z,6.90
2019-02-09T02:12:07.216Z,7.00
2019-02-09T02:14:48.028Z,6.90
2019-02-09T02:17:29.008Z,6.80
2019-02-09T02:20:09.654Z,6.80
2019-02-09T02:22:50.289Z,6.90
2019-02-09T02:25:31.823Z,7.00
2019-02-09T02:28:12.719Z,7.10
2019-02-09T02:30:53.413Z,7.20
2019-02-09T02:33:34.164Z,7.20
2019-02-09T02:36:15.563Z,7.30
2019-02-09T02:38:57.998Z,7.40
2019-02-09T02:41:39.541Z,7.40
2019-02-09T02:44:20.035Z,7.40
2019-02-09T02:47:01.397Z,7.30
2019-02-09T02:49:42.178Z,7.30
2019-02-09T02:52:22.775Z,7.40
2019-02-09T02:55:03.239Z,7.40
2019-02-09T02:57:44.636Z,7.30
2019-02-09T03:00:31.883Z,7.40
2019-02-09T03:03:08.182Z,7.30
2019-02-09T03:05:49.998Z,7.40
2019-02-09T03:08:31.244Z,7.40
2019-02-09T03:11:12.324Z,7.40
2019-02-09T03:13:52.910Z,7.20
2019-02-09T03:16:35.786Z,7.20
2019-02-09T03:19:24.050Z,7.50
2019-02-09T03:22:04.624Z,7.60
2019-02-09T03:24:45.709Z,7.60
2019-02-09T03:27:27.964Z,7.50
2019-02-09T03:30:08.439Z,7.40
2019-02-09T03:32:49.152Z,7.40
2019-02-09T03:35:30.761Z,7.40
2019-02-09T03:38:15.935Z,7.20
2019-02-09T03:40:45.052Z,7.10
2019-02-09T03:43:34.074Z,7.10
2019-02-09T03:46:23.551Z,7.00
2019-02-09T03:49:12.673Z,7.10
2019-02-09T03:51:55.812Z,7.10
2019-02-09T03:54:37.088Z,7.20
2019-02-09T03:57:17.869Z,7.10
2019-02-09T03:59:58.410Z,7.10
2019-02-09T04:05:34.926Z,7.10
2019-02-09T04:08:16.251Z,7.10
2019-02-09T04:10:57.218Z,7.20
2019-02-09T04:13:37.938Z,7.10
2019-02-09T04:16:18.480Z,7.20
2019-02-09T04:18:59.090Z,7.10
2019-02-09T04:21:41.269Z,7.10
2019-02-09T04:24:22.392Z,7.10
2019-02-09T04:27:03.146Z,7.10
2019-02-09T04:29:43.851Z,7.10
2019-02-09T04:32:24.855Z,7.10
2019-02-09T04:35:06.029Z,7.10
2019-02-09T04:37:45.315Z,7.00
2019-02-09T04:43:44.225Z,7.00
2019-02-09T04:46:25.768Z,7.10
2019-02-09T04:49:07.049Z,7.00
2019-02-09T04:51:48.913Z,7.00
2019-02-09T04:54:29.595Z,7.00
2019-02-09T04:57:10.883Z,7.00
2019-02-09T04:59:51.401Z,6.90
2019-02-09T05:02:32.422Z,6.80
2019-02-09T05:05:13.121Z,6.70
2019-02-09T05:07:55.745Z,6.80
2019-02-09T05:10:36.535Z,6.80
2019-02-09T05:13:17.727Z,6.80
2019-02-09T05:15:59.213Z,6.70
2019-02-09T05:18:40.964Z,6.60
2019-02-09T05:21:22.771Z,6.60
2019-02-09T05:23:51.895Z,6.60
2019-02-09T05:26:40.400Z,6.50
2019-02-09T05:29:29.368Z,6.50
2019-02-09T05:32:09.998Z,6.50
2019-02-09T05:34:50.681Z,6.50
2019-02-09T05:37:31.772Z,6.50
2019-02-09T05:40:12.710Z,6.50
2019-02-09T05:42:53.381Z,6.50
2019-02-09T05:45:37.329Z,6.40
2019-02-09T05:48:21.092Z,6.30
2019-02-09T05:51:02.424Z,6.30
2019-02-09T05:53:44.900Z,6.50
2019-02-09T05:56:25.669Z,6.60
2019-02-09T05:58:54.862Z,6.70
2019-02-09T06:01:45.202Z,6.70
2019-02-09T06:04:14.341Z,6.70
2019-02-09T06:07:02.665Z,6.70
2019-02-09T06:09:44.894Z,6.50
2019-02-09T06:12:26.171Z,6.50
2019-02-09T06:15:07.302Z,6.70
2019-02-09T06:17:48.859Z,6.70
2019-02-09T06:20:30.701Z,6.80
2019-02-09T06:23:13.593Z,6.60
2019-02-09T06:25:54.032Z,6.50
2019-02-09T06:28:23.151Z,6.80
2019-02-09T06:31:11.378Z,6.80
2019-02-09T06:33:59.666Z,6.80
2019-02-09T06:36:40.770Z,6.80
2019-02-09T06:39:21.380Z,6.70
2019-02-09T06:42:02.995Z,6.80
2019-02-09T06:44:44.166Z,6.70
2019-02-09T06:47:24.896Z,6.70
2019-02-09T06:50:07.557Z,6.60
2019-02-09T06:52:48.832Z,6.70
2019-02-09T06:55:30.030Z,6.60
2019-02-09T06:58:11.098Z,6.60
2019-02-09T07:00:52.320Z,6.50
2019-02-09T07:03:33.806Z,6.60
2019-02-09T07:06:15.183Z,6.50
2019-02-09T07:08:56.427Z,6.50
2019-02-09T07:11:37.767Z,6.40
2019-02-09T07:14:18.620Z,6.50
2019-02-09T07:16:59.473Z,6.50
2019-02-09T07:19:40.399Z,6.40
2019-02-09T07:22:21.629Z,6.40
2019-02-09T07:25:02.437Z,6.40
2019-02-09T07:27:43.412Z,6.30
2019-02-09T07:30:24.783Z,6.30
2019-02-09T07:33:08.906Z,6.30
2019-02-09T07:38:45.399Z,6.40
2019-02-09T07:41:27.259Z,6.40
2019-02-09T07:44:09.554Z,6.40
2019-02-09T07:46:50.888Z,6.50
2019-02-09T07:49:34.039Z,6.50
2019-02-09T07:52:16.190Z,6.40
2019-02-09T07:54:57.369Z,6.50
2019-02-09T07:57:38.306Z,6.60
2019-02-09T08:00:19.608Z,6.70
2019-02-09T08:03:00.673Z,6.60
2019-02-09T08:05:41.194Z,6.70
2019-02-09T08:11:36.426Z,6.70
2019-02-09T08:14:06.129Z,6.80
2019-02-09T08:16:54.376Z,6.90
2019-02-09T08:22:25.443Z,7.00
2019-02-09T08:25:06.077Z,7.10
2019-02-09T08:27:46.934Z,7.10
2019-02-09T08:30:29.042Z,7.20
2019-02-09T08:33:09.939Z,7.30
2019-02-09T08:35:51.204Z,7.40
2019-02-09T08:38:21.082Z,7.40
2019-02-09T08:44:09.563Z,7.60
2019-02-09T08:46:38.707Z,7.60
2019-02-09T08:49:28.535Z,7.80
2019-02-09T08:52:17.259Z,7.80
2019-02-09T08:57:59.137Z,7.70
2019-02-09T09:00:39.783Z,7.80
2019-02-09T09:03:22.445Z,7.80
2019-02-09T09:06:03.750Z,7.90
2019-02-09T09:08:47.363Z,7.90
2019-02-09T09:11:28.754Z,7.90
2019-02-09T09:14:09.936Z,8.00
2019-02-09T09:16:51.446Z,8.10
2019-02-09T09:19:32.584Z,8.20
2019-02-09T09:22:13.998Z,8.30
2019-02-09T09:24:55.670Z,8.30
2019-02-09T09:27:36.850Z,8.40
2019-02-09T09:30:17.403Z,8.40
2019-02-09T09:32:58.655Z,8.50
2019-02-09T09:35:47.132Z,8.60
2019-02-09T09:38:35.400Z,8.60
2019-02-09T09:41:16.557Z,8.60
2019-02-09T09:43:57.550Z,8.70
2019-02-09T09:46:38.098Z,8.80
2019-02-09T09:49:18.817Z,8.90
2019-02-09T09:51:58.161Z,9.00
2019-02-09T09:57:47.362Z,8.80
2019-02-09T10:00:30.883Z,8.90
2019-02-09T10:03:12.107Z,8.90
2019-02-09T10:05:54.945Z,8.90
2019-02-09T10:08:36.459Z,9.00
2019-02-09T10:11:17.401Z,9.00
2019-02-09T10:13:57.856Z,9.00
2019-02-09T10:16:38.974Z,9.10
2019-02-09T10:19:28.069Z,9.00
2019-02-09T10:22:00.948Z,9.00
2019-02-09T10:24:49.192Z,9.00
2019-02-09T10:27:30.049Z,9.10
2019-02-09T10:30:11.306Z,9.10
2019-02-09T10:32:51.792Z,9.10
2019-02-09T10:36:02.154Z,9.00
2019-02-09T10:38:50.410Z,9.10
2019-02-09T10:41:31.690Z,9.20
2019-02-09T10:44:16.040Z,9.40
2019-02-09T10:46:58.144Z,9.50
2019-02-09T10:49:39.335Z,9.50
2019-02-09T10:52:08.652Z,9.40
2019-02-09T10:54:38.594Z,9.40
2019-02-09T10:57:46.662Z,9.40
2019-02-09T11:00:19.621Z,9.30
2019-02-09T11:03:08.161Z,9.40
2019-02-09T11:05:37.564Z,9.40
2019-02-09T11:08:26.071Z,9.40
2019-02-09T11:11:14.603Z,9.40
2019-02-09T11:13:55.665Z,9.30
2019-02-09T11:16:47.911Z,9.20
2019-02-09T11:19:30.844Z,9.10
2019-02-09T11:22:14.894Z,9.00
2019-02-09T11:24:57.280Z,9.00
2019-02-09T11:27:39.196Z,9.10
2019-02-09T11:30:27.495Z,9.20
2019-02-09T11:33:16.321Z,9.20
2019-02-09T11:35:57.283Z,9.20
2019-02-09T11:38:43.860Z,9.20
2019-02-09T11:41:21.403Z,9.30
2019-02-09T11:44:03.660Z,9.20
2019-02-09T11:46:44.542Z,9.10
2019-02-09T11:49:23.951Z,9.00
2019-02-09T11:52:05.376Z,9.00
2019-02-09T11:54:47.420Z,9.10
2019-02-09T11:57:28.454Z,9.20
2019-02-09T12:00:11.480Z,9.30
2019-02-09T12:02:40.600Z,9.30
2019-02-09T12:05:28.863Z,9.30
2019-02-09T12:08:10.172Z,9.30
2019-02-09T12:10:50.768Z,9.20
2019-02-09T12:13:31.960Z,9.10
2019-02-09T12:16:12.879Z,9.10
2019-02-09T12:18:54.144Z,9.10
2019-02-09T12:21:35.695Z,9.10
2019-02-09T12:24:19.270Z,9.10
2019-02-09T12:27:00.253Z,9.00
2019-02-09T12:29:41.359Z,9.00
2019-02-09T12:32:23.093Z,9.00
2019-02-09T12:35:06.877Z,9.00
2019-02-09T12:37:49.946Z,8.90
2019-02-09T12:40:30.572Z,8.90
2019-02-09T12:43:11.448Z,8.90
2019-02-09T12:45:52.651Z,8.80
2019-02-09T12:48:22.691Z,8.90
2019-02-09T12:53:47.658Z,9.00
2019-02-09T12:59:38.082Z,9.10
2019-02-09T13:02:19.608Z,9.20
2019-02-09T13:05:00.680Z,9.20
2019-02-09T13:07:43.598Z,9.20
2019-02-09T13:10:43.757Z,9.20
2019-02-09T13:13:12.288Z,9.20
2019-02-09T13:15:52.887Z,9.20
2019-02-09T13:18:34.153Z,9.30
2019-02-09T13:21:03.445Z,9.30
2019-02-09T13:23:45.680Z,9.20
2019-02-09T13:29:16.107Z,9.20
2019-02-09T13:31:56.863Z,9.20
2019-02-09T13:34:39.484Z,9.20
2019-02-09T13:37:20.432Z,9.20
2019-02-09T13:40:01.464Z,9.20
2019-02-09T13:42:42.905Z,9.20
2019-02-09T13:45:26.655Z,9.30
2019-02-09T13:48:11.218Z,9.30
2019-02-09T13:50:52.437Z,9.30
2019-02-09T13:53:33.923Z,9.40
2019-02-09T13:56:15.225Z,9.50
2019-02-09T14:01:49.612Z,9.70
2019-02-09T14:10:10.602Z,9.90
2019-02-09T14:12:51.585Z,10.00
2019-02-09T14:15:25.928Z,10.10
2019-02-09T14:18:14.264Z,10.10
2019-02-09T14:20:55.816Z,10.20
2019-02-09T14:23:36.442Z,10.20
2019-02-09T14:26:17.923Z,10.20
2019-02-09T14:28:59.185Z,10.20
2019-02-09T14:31:40.149Z,10.20
2019-02-09T14:34:20.677Z,10.30
2019-02-09T14:37:02.164Z,10.40
2019-02-09T14:39:54.117Z,10.20
2019-02-09T14:42:35.486Z,9.70
2019-02-09T14:45:51.741Z,9.30
2019-02-09T14:48:40.223Z,9.20
2019-02-09T14:51:09.393Z,9.10
2019-02-09T14:53:38.503Z,9.10
2019-02-09T14:56:47.343Z,9.00
2019-02-09T14:59:30.146Z,9.00
2019-02-09T15:02:12.022Z,9.00
2019-02-09T15:04:41.125Z,9.20
2019-02-09T15:07:41.521Z,9.20
2019-02-09T15:10:22.423Z,9.20
2019-02-09T15:13:03.055Z,9.20
2019-02-09T15:15:34.733Z,9.20
2019-02-09T15:18:23.100Z,9.20
2019-02-09T15:21:11.774Z,9.20
2019-02-09T15:23:53.570Z,9.40
2019-02-09T15:26:22.681Z,9.20
2019-02-09T15:29:11.033Z,9.00
2019-02-09T15:32:00.266Z,9.00
2019-02-09T15:34:41.326Z,8.90
2019-02-09T15:37:22.118Z,8.80
2019-02-09T15:40:03.206Z,8.70
2019-02-09T15:42:45.786Z,8.70
2019-02-09T15:45:35.618Z,8.90
2019-02-09T15:48:05.374Z,8.90
2019-02-09T15:50:53.833Z,8.90
2019-02-09T15:53:34.963Z,8.90
2019-02-09T15:56:15.857Z,8.60
2019-02-09T15:58:59.335Z,8.50
2019-02-09T16:01:39.983Z,8.50
2019-02-09T16:04:17.840Z,8.50
2019-02-09T16:07:07.248Z,8.40
2019-02-09T16:09:48.921Z,8.40
2019-02-09T16:12:29.517Z,8.40
2019-02-09T16:15:10.393Z,8.60
2019-02-09T16:17:51.343Z,8.60
2019-02-09T16:20:32.467Z,8.50
2019-02-09T16:23:15.381Z,8.40
2019-02-09T16:25:57.543Z,8.30
2019-02-09T16:28:38.557Z,8.30
2019-02-09T16:34:54.658Z,8.20
2019-02-09T16:40:48.992Z,8.20
2019-02-09T16:46:51.322Z,8.30
2019-02-09T16:49:32.172Z,8.30
2019-02-09T16:52:13.012Z,8.20
2019-02-09T16:54:52.986Z,8.10
2019-02-09T16:57:22.190Z,8.00
2019-02-09T16:59:51.329Z,8.00
2019-02-09T17:05:29.766Z,8.00
2019-02-09T17:08:13.673Z,8.00
2019-02-09T17:10:54.791Z,8.00
2019-02-09T17:13:36.065Z,8.10
2019-02-09T17:16:17.333Z,8.10
2019-02-09T17:18:57.922Z,8.10
2019-02-09T17:21:27.968Z,8.00
2019-02-09T17:24:16.263Z,8.00
2019-02-09T17:26:58.089Z,8.00
2019-02-09T17:29:39.420Z,8.00
2019-02-09T17:35:16.497Z,7.90
2019-02-09T17:37:59.998Z,7.90
2019-02-09T17:40:51.608Z,7.90
2019-02-09T17:43:43.311Z,8.00
2019-02-09T17:46:27.413Z,8.00
2019-02-09T17:49:10.202Z,7.90
2019-02-09T17:51:58.017Z,7.90
2019-02-09T17:54:40.437Z,7.90
2019-02-09T17:57:09.576Z,7.90
2019-02-09T18:00:16.918Z,7.90
2019-02-09T18:03:05.448Z,7.90
2019-02-09T18:05:47.753Z,7.90
2019-02-09T18:08:29.078Z,7.90
2019-02-09T18:11:18.970Z,8.00
2019-02-09T18:14:07.262Z,8.00
2019-02-09T18:16:48.011Z,8.00
2019-02-09T18:19:30.936Z,8.00
2019-02-09T18:22:14.591Z,8.10
2019-02-09T18:24:55.737Z,8.10
2019-02-09T18:27:41.281Z,8.10
2019-02-09T18:30:24.042Z,8.10
2019-02-09T18:33:05.217Z,8.10
2019-02-09T18:35:46.378Z,8.10
2019-02-09T18:38:31.705Z,8.10
2019-02-09T18:41:12.341Z,8.10
2019-02-09T18:43:53.717Z,8.20
2019-02-09T18:46:35.311Z,8.10
2019-02-09T18:49:17.267Z,8.20
2019-02-09T18:51:58.689Z,8.10
2019-02-09T18:54:39.854Z,8.10
2019-02-09T18:57:21.003Z,8.10
2019-02-09T19:00:04.237Z,8.10
2019-02-09T19:02:52.610Z,8.20
2019-02-09T19:05:33.582Z,8.10
2019-02-09T19:08:17.396Z,8.20
2019-02-09T19:10:58.155Z,8.20
2019-02-09T19:13:39.188Z,8.20
2019-02-09T19:16:13.492Z,8.20
2019-02-09T19:19:01.796Z,8.10
2019-02-09T19:21:50.077Z,8.10
2019-02-09T19:24:31.015Z,8.10
2019-02-09T19:27:12.330Z,8.10
2019-02-09T19:29:52.894Z,8.00
2019-02-09T19:32:33.124Z,8.00
2019-02-09T19:35:14.170Z,7.90
2019-02-09T19:37:58.014Z,7.80
2019-02-09T19:40:39.435Z,7.80
2019-02-09T19:43:21.469Z,7.80
2019-02-09T19:46:02.187Z,7.90
2019-02-09T19:48:43.044Z,7.90
2019-02-09T19:51:25.887Z,7.90
2019-02-09T19:54:09.629Z,7.80
2019-02-09T19:56:51.495Z,7.80
2019-02-09T19:59:32.979Z,7.70
2019-02-09T20:02:14.165Z,7.70
2019-02-09T20:05:19.541Z,7.70
2019-02-09T20:07:45.057Z,7.70
2019-02-09T20:10:23.551Z,7.70
2019-02-09T20:16:01.613Z,7.60
2019-02-09T20:18:43.634Z,7.60
2019-02-09T20:21:24.509Z,7.50
2019-02-09T20:24:06.760Z,7.50
2019-02-09T20:26:47.680Z,7.40
2019-02-09T20:29:28.908Z,7.40
2019-02-09T20:32:10.272Z,7.40
2019-02-09T20:34:51.090Z,7.40
2019-02-09T20:37:32.469Z,7.40
2019-02-09T20:40:14.188Z,7.40
2019-02-09T20:43:01.856Z,7.40
2019-02-09T20:45:37.961Z,7.40
2019-02-09T20:48:19.776Z,7.40
2019-02-09T20:51:04.500Z,7.50
2019-02-09T20:53:45.828Z,7.50
2019-02-09T20:56:27.105Z,7.50
2019-02-09T20:59:09.220Z,7.50
2019-02-09T21:01:38.463Z,7.50
2019-02-09T21:04:28.989Z,7.60
2019-02-09T21:07:36.619Z,7.60
2019-02-09T21:10:46.072Z,7.70
2019-02-09T21:13:15.523Z,7.70
2019-02-09T21:16:03.797Z,7.70
2019-02-09T21:18:44.690Z,7.60
2019-02-09T21:21:25.843Z,7.70
2019-02-09T21:24:07.401Z,7.70
2019-02-09T21:26:38.095Z,7.80
2019-02-09T21:29:29.972Z,7.80
2019-02-09T21:32:13.339Z,7.70
2019-02-09T21:34:54.284Z,7.80
2019-02-09T21:37:26.075Z,7.70
2019-02-09T21:40:33.461Z,7.70
2019-02-09T21:43:16.952Z,7.70
2019-02-09T21:45:58.234Z,7.70
2019-02-09T21:48:39.162Z,7.80
2019-02-09T21:51:20.144Z,7.90
2019-02-09T21:54:01.468Z,7.90
2019-02-09T21:56:42.954Z,7.90
2019-02-09T21:59:24.214Z,7.90
2019-02-09T22:01:54.095Z,7.80
2019-02-09T22:04:42.931Z,7.70
2019-02-09T22:07:31.378Z,7.70
2019-02-09T22:13:13.483Z,7.60
2019-02-09T22:15:55.340Z,7.50
2019-02-09T22:18:36.071Z,7.60
2019-02-09T22:21:18.290Z,7.60
2019-02-09T22:23:59.395Z,7.60
2019-02-09T22:26:42.793Z,7.60
2019-02-09T22:29:31.041Z,7.60
2019-02-09T22:32:41.889Z,7.60
2019-02-09T22:35:23.125Z,7.60
2019-02-09T22:38:04.900Z,7.50
2019-02-09T22:40:44.547Z,7.40
2019-02-09T22:43:25.799Z,7.40
2019-02-09T22:46:07.011Z,7.30
2019-02-09T22:48:48.313Z,7.50
2019-02-09T22:51:29.248Z,7.50
2019-02-09T22:54:10.464Z,7.50
2019-02-09T22:56:51.031Z,7.50
2019-02-09T22:59:32.783Z,7.50
2019-02-09T23:02:13.773Z,7.60
2019-02-09T23:04:54.830Z,7.60
2019-02-09T23:07:36.080Z,7.50
2019-02-09T23:10:17.720Z,7.40
2019-02-09T23:12:48.693Z,7.40
2019-02-09T23:15:37.142Z,7.40
2019-02-09T23:18:19.726Z,7.60
2019-02-09T23:21:00.421Z,7.60
2019-02-09T23:23:41.162Z,7.70
2019-02-09T23:26:22.159Z,7.70
2019-02-09T23:29:02.980Z,7.70
2019-02-09T23:31:43.809Z,7.80
2019-02-09T23:34:12.867Z,7.70
2019-02-09T23:37:01.425Z,7.70
2019-02-09T23:39:42.061Z,7.60
2019-02-09T23:42:22.831Z,7.50
2019-02-09T23:45:03.731Z,7.50
2019-02-09T23:47:44.201Z,7.60
2019-02-09T23:50:24.931Z,7.60
2019-02-09T23:53:05.605Z,7.50
2019-02-09T23:55:48.381Z,7.50
2019-02-09T23:58:30.863Z,7.50
